Almozara, Spain
Current Conditions -  °F | °C
As of 3:00 PM on Sunday 25 Jan 2015 (Local Time) from LEZG Reporting Station
Clear Clear  
Wind Chill: 10°   Ceiling: Unl
Heat Index: 10°   Visibility: 6mi
Dew Point: -6°   Wind: 41mph
Humidity: 32%   Direction: 310°NW
Pressure: 30.24"   Gusts: 53mph
Location:  41.66°N, 0.9°W
Report Text: LEZG 251400Z 31036G46KT CAVOK 10/M06 Q1024
Loading
Personal Weather Stations






























Interactive Weather Map New forecast layout! Learn more

10-Day Weather Forecast

Advertisements
Track Severe Weather on mobile